createdAt,value
2022-09-28T00:01:19.892Z,11.87
2022-09-28T00:04:22.498Z,11.84
2022-09-28T00:07:24.496Z,11.83
2022-09-28T00:10:26.789Z,11.78
2022-09-28T00:13:29.491Z,11.75
2022-09-28T00:16:33.278Z,11.70
2022-09-28T00:19:35.324Z,11.68
2022-09-28T00:22:37.698Z,11.66
2022-09-28T00:25:39.728Z,11.65
2022-09-28T00:28:41.979Z,11.64
2022-09-28T00:31:44.273Z,11.63
2022-09-28T00:34:46.606Z,11.60
2022-09-28T00:37:49.075Z,11.58
2022-09-28T00:40:52.043Z,11.58
2022-09-28T00:44:14.160Z,11.57
2022-09-28T00:47:37.357Z,11.58
2022-09-28T00:50:39.767Z,11.60
2022-09-28T00:53:43.903Z,11.59
2022-09-28T00:56:47.525Z,11.60
2022-09-28T00:59:51.180Z,11.59
2022-09-28T01:02:53.531Z,11.59
2022-09-28T01:05:57.771Z,11.58
2022-09-28T01:09:03.003Z,11.58
2022-09-28T01:12:05.546Z,11.61
2022-09-28T01:15:07.770Z,11.61
2022-09-28T01:18:17.009Z,11.63
2022-09-28T01:21:20.463Z,11.66
2022-09-28T01:24:41.408Z,11.68
2022-09-28T01:27:59.870Z,11.66
2022-09-28T01:31:09.552Z,11.66
2022-09-28T01:34:16.196Z,11.66
2022-09-28T01:37:19.991Z,11.66
2022-09-28T01:40:24.284Z,11.63
2022-09-28T01:43:27.755Z,11.63
2022-09-28T01:46:42.154Z,11.64
2022-09-28T01:49:47.163Z,11.61
2022-09-28T01:52:55.420Z,11.62
2022-09-28T01:56:04.569Z,11.61
2022-09-28T01:59:16.010Z,11.59
2022-09-28T02:02:22.370Z,11.54
2022-09-28T02:05:31.570Z,11.53
2022-09-28T02:08:36.423Z,11.51
2022-09-28T02:11:42.238Z,11.51
2022-09-28T02:14:45.572Z,11.52
2022-09-28T02:17:47.990Z,11.52
2022-09-28T02:20:58.835Z,11.54
2022-09-28T02:24:07.008Z,11.56
2022-09-28T02:27:18.478Z,11.58
2022-09-28T02:30:21.244Z,11.59
2022-09-28T02:33:28.818Z,11.60
2022-09-28T02:36:32.270Z,11.58
2022-09-28T02:39:34.320Z,11.58
2022-09-28T02:42:46.762Z,11.57
2022-09-28T02:45:52.632Z,11.55
2022-09-28T02:49:20.806Z,11.42
2022-09-28T02:52:41.569Z,11.50
2022-09-28T02:55:56.416Z,11.48
2022-09-28T02:58:58.433Z,11.47
2022-09-28T03:02:24.899Z,11.47
2022-09-28T03:05:35.375Z,11.46
2022-09-28T03:08:56.679Z,11.42
2022-09-28T03:12:03.628Z,11.44
2022-09-28T03:15:26.246Z,11.43
2022-09-28T03:18:28.603Z,11.43
2022-09-28T03:21:30.898Z,11.41
2022-09-28T03:24:32.989Z,11.42
2022-09-28T03:27:35.270Z,11.40
2022-09-28T03:30:37.286Z,11.42
2022-09-28T03:33:39.895Z,11.40
2022-09-28T03:36:41.943Z,11.40
2022-09-28T03:39:44.340Z,11.41
2022-09-28T03:42:46.914Z,11.38
2022-09-28T03:45:55.535Z,11.37
2022-09-28T03:49:00.975Z,11.35
2022-09-28T03:52:04.317Z,11.34
2022-09-28T03:55:06.500Z,11.33
2022-09-28T03:58:08.807Z,11.32
2022-09-28T04:01:16.483Z,11.33
2022-09-28T04:04:19.950Z,11.33
2022-09-28T04:07:21.972Z,11.32
2022-09-28T04:10:24.946Z,11.32
2022-09-28T04:13:28.071Z,11.33
2022-09-28T04:16:30.442Z,11.30
2022-09-28T04:19:33.325Z,11.27
2022-09-28T04:22:37.686Z,11.25
2022-09-28T04:25:39.847Z,11.24
2022-09-28T04:29:06.307Z,11.23
2022-09-28T04:32:09.723Z,11.22
2022-09-28T04:35:12.152Z,11.22
2022-09-28T04:38:14.146Z,11.21
2022-09-28T04:41:16.780Z,11.22
2022-09-28T04:44:18.836Z,11.21
2022-09-28T04:47:21.196Z,11.18
2022-09-28T04:50:24.622Z,11.16
2022-09-28T04:53:41.243Z,11.13
2022-09-28T04:56:43.259Z,11.09
2022-09-28T04:59:45.724Z,11.05
2022-09-28T05:02:47.750Z,11.02
2022-09-28T05:05:52.386Z,11.02
2022-09-28T05:08:57.366Z,11.01
2022-09-28T05:11:59.758Z,11.00
2022-09-28T05:15:01.806Z,10.99
2022-09-28T05:18:04.376Z,10.98
2022-09-28T05:21:12.859Z,10.95
2022-09-28T05:24:15.735Z,10.91
2022-09-28T05:27:18.595Z,10.92
2022-09-28T05:30:22.765Z,10.91
2022-09-28T05:33:25.609Z,10.89
2022-09-28T05:36:28.061Z,10.88
2022-09-28T05:39:30.050Z,10.89
2022-09-28T05:42:32.331Z,10.92
2022-09-28T05:45:34.518Z,10.95
2022-09-28T05:48:38.078Z,11.02
2022-09-28T05:51:40.212Z,11.11
2022-09-28T05:54:43.855Z,11.19
2022-09-28T05:57:46.122Z,11.26
2022-09-28T06:00:53.953Z,11.32
2022-09-28T06:03:56.283Z,11.42
2022-09-28T06:06:58.891Z,11.50
2022-09-28T06:10:01.406Z,11.57
2022-09-28T06:13:06.614Z,11.63
2022-09-28T06:16:14.216Z,11.73
2022-09-28T06:19:16.318Z,11.83
2022-09-28T06:22:18.693Z,11.93
2022-09-28T06:25:22.259Z,12.03
2022-09-28T06:28:26.052Z,12.12
2022-09-28T06:31:30.138Z,12.23
2022-09-28T06:34:32.449Z,12.36
2022-09-28T06:37:34.544Z,12.53
2022-09-28T06:40:37.453Z,12.71
2022-09-28T06:43:39.668Z,12.85
2022-09-28T06:46:43.378Z,12.94
2022-09-28T06:49:51.260Z,13.04
2022-09-28T06:52:57.182Z,13.10
2022-09-28T06:55:59.896Z,13.20
2022-09-28T06:59:04.163Z,13.43
2022-09-28T07:02:08.903Z,13.57
2022-09-28T07:05:13.496Z,13.65
2022-09-28T07:08:15.948Z,13.63
2022-09-28T07:11:20.376Z,13.86
2022-09-28T07:14:42.204Z,14.09
2022-09-28T07:17:57.981Z,14.19
2022-09-28T07:21:04.149Z,14.38
2022-09-28T07:24:06.913Z,14.42
2022-09-28T07:27:10.770Z,14.61
2022-09-28T07:30:13.607Z,14.59
2022-09-28T07:33:17.170Z,14.83
2022-09-28T07:36:20.908Z,15.33
2022-09-28T07:39:23.210Z,17.58
2022-09-28T07:42:30.107Z,20.87
2022-09-28T07:45:36.701Z,23.29
2022-09-28T07:48:42.825Z,26.11
2022-09-28T07:51:44.919Z,27.80
2022-09-28T07:54:52.086Z,29.14
2022-09-28T07:58:01.648Z,30.26
2022-09-28T08:01:08.731Z,31.98
2022-09-28T08:04:11.280Z,31.36
2022-09-28T08:07:16.634Z,32.29
2022-09-28T08:10:22.325Z,33.09
2022-09-28T08:13:29.092Z,31.00
2022-09-28T08:16:32.394Z,26.01
2022-09-28T08:19:53.537Z,24.72
2022-09-28T08:22:56.906Z,23.63
2022-09-28T08:25:59.120Z,22.16
2022-09-28T08:29:01.566Z,21.88
2022-09-28T08:32:08.158Z,21.08
2022-09-28T08:35:11.880Z,20.16
2022-09-28T08:38:14.332Z,19.20
2022-09-28T08:41:17.611Z,19.14
2022-09-28T08:44:24.374Z,19.21
2022-09-28T08:47:52.476Z,19.28
2022-09-28T08:50:59.362Z,19.23
2022-09-28T08:54:12.652Z,18.56
2022-09-28T08:57:23.003Z,18.32
2022-09-28T09:00:38.682Z,18.73
2022-09-28T09:03:45.320Z,19.19
2022-09-28T09:06:56.633Z,19.77
2022-09-28T09:10:13.512Z,19.79
2022-09-28T09:13:31.571Z,19.70
2022-09-28T09:16:43.539Z,19.10
2022-09-28T09:19:46.241Z,19.34
2022-09-28T09:22:59.779Z,18.96
2022-09-28T09:26:12.439Z,18.72
2022-09-28T09:29:34.302Z,18.72
2022-09-28T09:32:36.567Z,18.83
2022-09-28T09:35:45.257Z,18.90
2022-09-28T09:38:58.279Z,18.80
2022-09-28T09:42:21.115Z,19.34
2022-09-28T09:45:33.327Z,19.94
2022-09-28T09:48:39.550Z,20.43
2022-09-28T09:51:44.966Z,21.05
2022-09-28T09:54:51.897Z,21.52
2022-09-28T09:58:04.188Z,21.86
2022-09-28T10:01:13.161Z,21.73
2022-09-28T10:04:26.801Z,20.48
2022-09-28T10:07:31.975Z,19.56
2022-09-28T10:10:37.285Z,18.99
2022-09-28T10:13:40.347Z,19.03
2022-09-28T10:16:46.114Z,18.64
2022-09-28T10:19:49.344Z,18.26
2022-09-28T10:22:58.064Z,18.17
2022-09-28T10:26:05.975Z,18.33
2022-09-28T10:29:15.197Z,18.24
2022-09-28T10:32:18.482Z,18.67
2022-09-28T10:35:23.243Z,19.03
2022-09-28T10:38:26.213Z,19.40
2022-09-28T10:41:31.660Z,19.32
2022-09-28T10:44:35.272Z,19.45
2022-09-28T10:47:37.953Z,19.53
2022-09-28T10:50:40.844Z,19.01
2022-09-28T10:53:58.209Z,18.84
2022-09-28T10:57:00.922Z,19.11
2022-09-28T11:00:06.168Z,19.01
2022-09-28T11:03:19.420Z,18.74
2022-09-28T11:06:38.281Z,19.05
2022-09-28T11:09:45.059Z,18.54
2022-09-28T11:12:49.599Z,18.82
2022-09-28T11:15:53.012Z,18.99
2022-09-28T11:18:57.802Z,19.04
2022-09-28T11:22:00.902Z,19.63
2022-09-28T11:25:16.453Z,20.15
2022-09-28T11:28:24.813Z,19.77
2022-09-28T11:31:28.169Z,19.30
2022-09-28T11:35:00.183Z,19.10
2022-09-28T11:38:12.274Z,19.29
2022-09-28T11:41:34.074Z,19.35
2022-09-28T11:44:36.335Z,19.85
2022-09-28T11:47:41.665Z,19.99
2022-09-28T11:50:56.779Z,19.97
2022-09-28T11:54:02.497Z,19.71
2022-09-28T11:57:05.384Z,20.12
2022-09-28T12:00:11.892Z,20.31
2022-09-28T12:03:21.932Z,19.87
2022-09-28T12:06:29.265Z,20.01
2022-09-28T12:09:50.823Z,20.22
2022-09-28T12:13:01.381Z,20.42
2022-09-28T12:16:32.835Z,20.46
2022-09-28T12:19:44.189Z,20.40
2022-09-28T12:23:02.709Z,20.42
2022-09-28T12:26:10.746Z,20.65
2022-09-28T12:29:19.251Z,20.53
2022-09-28T12:32:30.830Z,20.38
2022-09-28T12:35:52.112Z,20.41
2022-09-28T12:39:18.941Z,19.79
2022-09-28T12:42:28.709Z,19.79
2022-09-28T12:45:53.089Z,19.68
2022-09-28T12:49:43.643Z,19.45
2022-09-28T12:52:33.007Z,19.05
2022-09-28T12:55:44.971Z,18.91
2022-09-28T12:58:48.475Z,19.04
2022-09-28T13:01:59.960Z,19.24
2022-09-28T13:05:14.607Z,19.45
2022-09-28T13:08:16.648Z,19.38
2022-09-28T13:11:37.354Z,19.45
2022-09-28T13:14:39.413Z,19.57
2022-09-28T13:18:01.720Z,19.66
2022-09-28T13:21:06.796Z,19.57
2022-09-28T13:24:30.991Z,19.76
2022-09-28T13:27:37.538Z,19.86
2022-09-28T13:30:40.428Z,19.68
2022-09-28T13:33:43.925Z,19.09
2022-09-28T13:36:48.337Z,18.66
2022-09-28T13:39:56.448Z,18.71
2022-09-28T13:43:03.947Z,18.76
2022-09-28T13:46:18.824Z,18.89
2022-09-28T13:49:21.193Z,18.83
2022-09-28T13:52:35.514Z,18.89
2022-09-28T13:55:47.581Z,18.70
2022-09-28T13:58:53.731Z,18.70
2022-09-28T14:02:15.078Z,18.66
2022-09-28T14:05:23.234Z,18.72
2022-09-28T14:08:32.007Z,18.58
2022-09-28T14:11:34.841Z,18.66
2022-09-28T14:14:48.649Z,18.74
2022-09-28T14:17:54.571Z,18.71
2022-09-28T14:21:02.609Z,18.57
2022-09-28T14:24:23.382Z,18.23
2022-09-28T14:27:40.393Z,17.95
2022-09-28T14:30:42.824Z,17.78
2022-09-28T14:33:54.752Z,17.79
2022-09-28T14:37:15.793Z,17.58
2022-09-28T14:40:44.799Z,17.65
2022-09-28T14:44:02.762Z,17.73
2022-09-28T14:47:24.738Z,17.68
2022-09-28T14:50:28.353Z,17.58
2022-09-28T14:53:30.436Z,17.58
2022-09-28T14:56:44.226Z,17.57
2022-09-28T14:59:47.836Z,17.50
2022-09-28T15:02:52.620Z,17.48
2022-09-28T15:05:55.313Z,17.43
2022-09-28T15:08:57.624Z,17.38
2022-09-28T15:12:07.714Z,17.35
2022-09-28T15:15:24.462Z,17.35
2022-09-28T15:18:55.814Z,17.31
2022-09-28T15:21:58.157Z,17.24
2022-09-28T15:25:02.937Z,17.20
2022-09-28T15:28:18.564Z,17.26
2022-09-28T15:31:22.770Z,17.28
2022-09-28T15:34:48.025Z,17.25
2022-09-28T15:37:52.047Z,17.24
2022-09-28T15:40:54.903Z,17.18
2022-09-28T15:44:12.100Z,17.11
2022-09-28T15:47:16.021Z,17.10
2022-09-28T15:50:22.952Z,17.07
2022-09-28T15:53:25.420Z,17.02
2022-09-28T15:56:29.184Z,16.99
2022-09-28T15:59:39.703Z,16.95
2022-09-28T16:02:56.551Z,16.94
2022-09-28T16:05:58.798Z,16.95
2022-09-28T16:09:00.805Z,16.88
2022-09-28T16:12:11.524Z,16.88
2022-09-28T16:15:20.599Z,16.83
2022-09-28T16:18:23.624Z,16.81
2022-09-28T16:21:28.590Z,16.77
2022-09-28T16:24:35.178Z,16.75
2022-09-28T16:27:41.887Z,16.74
2022-09-28T16:30:59.557Z,16.72
2022-09-28T16:34:11.669Z,16.61
2022-09-28T16:37:31.520Z,16.66
2022-09-28T16:40:34.791Z,16.65
2022-09-28T16:43:37.111Z,16.65
2022-09-28T16:46:39.323Z,16.63
2022-09-28T16:49:42.142Z,16.59
2022-09-28T16:53:02.745Z,16.58
2022-09-28T16:56:05.817Z,16.53
2022-09-28T16:59:13.605Z,16.50
2022-09-28T17:02:42.222Z,16.48
2022-09-28T17:05:40.252Z,16.49
2022-09-28T17:08:43.207Z,16.47
2022-09-28T17:11:45.316Z,16.43
2022-09-28T17:14:47.905Z,16.40
2022-09-28T17:17:50.514Z,16.39
2022-09-28T17:20:55.099Z,16.37
2022-09-28T17:23:57.149Z,16.36
2022-09-28T17:27:00.815Z,16.32
2022-09-28T17:30:02.967Z,16.29
2022-09-28T17:33:05.374Z,16.26
2022-09-28T17:36:10.436Z,16.24
2022-09-28T17:39:14.120Z,16.16
2022-09-28T17:42:17.302Z,16.12
2022-09-28T17:45:19.589Z,16.07
2022-09-28T17:48:24.761Z,15.99
2022-09-28T17:51:28.751Z,15.92
2022-09-28T17:54:30.808Z,15.87
2022-09-28T17:57:35.277Z,15.81
2022-09-28T18:00:37.327Z,15.78
2022-09-28T18:03:39.834Z,15.69
2022-09-28T18:06:43.229Z,15.67
2022-09-28T18:09:45.767Z,15.62
2022-09-28T18:12:48.210Z,15.60
2022-09-28T18:15:54.603Z,15.56
2022-09-28T18:18:59.233Z,15.50
2022-09-28T18:22:01.819Z,15.38
2022-09-28T18:25:04.439Z,15.32
2022-09-28T18:28:07.235Z,15.29
2022-09-28T18:31:10.026Z,15.24
2022-09-28T18:34:13.649Z,15.20
2022-09-28T18:37:15.775Z,15.13
2022-09-28T18:40:19.480Z,15.03
2022-09-28T18:43:21.794Z,14.99
2022-09-28T18:46:27.138Z,14.99
2022-09-28T18:49:30.911Z,14.97
2022-09-28T18:52:35.788Z,14.87
2022-09-28T18:55:42.063Z,14.86
2022-09-28T18:58:45.409Z,14.85
2022-09-28T19:01:47.521Z,14.83
2022-09-28T19:04:49.881Z,14.81
2022-09-28T19:07:52.075Z,14.77
2022-09-28T19:11:03.392Z,14.76
2022-09-28T19:14:05.474Z,14.78
2022-09-28T19:17:07.932Z,14.65
2022-09-28T19:20:10.023Z,14.62
2022-09-28T19:23:12.297Z,14.63
2022-09-28T19:26:15.904Z,14.61
2022-09-28T19:29:18.466Z,14.58
2022-09-28T19:32:20.601Z,14.55
2022-09-28T19:35:22.935Z,14.57
2022-09-28T19:38:25.250Z,14.52
2022-09-28T19:41:46.774Z,14.51
2022-09-28T19:44:48.848Z,14.46
2022-09-28T19:47:51.274Z,14.37
2022-09-28T19:51:00.569Z,14.36
2022-09-28T19:54:04.473Z,14.33
2022-09-28T19:57:08.644Z,14.31
2022-09-28T20:00:11.644Z,14.31
2022-09-28T20:03:14.375Z,14.32
2022-09-28T20:06:17.422Z,14.34
2022-09-28T20:09:20.249Z,14.34
2022-09-28T20:12:22.503Z,14.34
2022-09-28T20:15:25.255Z,14.33
2022-09-28T20:18:27.524Z,14.33
2022-09-28T20:21:30.314Z,14.20
2022-09-28T20:24:32.654Z,14.30
2022-09-28T20:27:35.019Z,14.30
2022-09-28T20:30:37.382Z,14.31
2022-09-28T20:33:39.808Z,14.30
2022-09-28T20:36:42.443Z,14.29
2022-09-28T20:39:45.278Z,14.31
2022-09-28T20:42:47.375Z,14.30
2022-09-28T20:45:50.571Z,14.29
2022-09-28T20:48:55.019Z,14.24
2022-09-28T20:51:59.480Z,14.23
2022-09-28T20:55:01.547Z,14.21
2022-09-28T20:58:04.578Z,14.20
2022-09-28T21:01:09.564Z,14.22
2022-09-28T21:04:11.999Z,14.20
2022-09-28T21:07:14.084Z,14.17
2022-09-28T21:10:16.712Z,14.16
2022-09-28T21:13:18.752Z,14.17
2022-09-28T21:16:21.126Z,14.17
2022-09-28T21:19:24.294Z,14.14
2022-09-28T21:22:28.965Z,14.15
2022-09-28T21:25:31.286Z,14.12
2022-09-28T21:28:33.961Z,14.15
2022-09-28T21:31:40.131Z,14.11
2022-09-28T21:34:42.397Z,14.09
2022-09-28T21:37:44.391Z,14.10
2022-09-28T21:40:47.152Z,14.03
2022-09-28T21:43:49.261Z,14.06
2022-09-28T21:46:51.574Z,14.06
2022-09-28T21:49:53.616Z,13.98
2022-09-28T21:52:55.942Z,13.95
2022-09-28T21:55:58.630Z,13.88
2022-09-28T21:59:01.424Z,13.84
2022-09-28T22:02:05.801Z,13.84
2022-09-28T22:05:09.189Z,13.78
2022-09-28T22:08:11.719Z,13.75
2022-09-28T22:11:19.015Z,13.62
2022-09-28T22:14:21.090Z,13.75
2022-09-28T22:17:23.479Z,13.72
2022-09-28T22:20:25.489Z,13.75
2022-09-28T22:23:30.392Z,13.76
2022-09-28T22:26:33.778Z,13.79
2022-09-28T22:29:36.148Z,13.82
2022-09-28T22:32:38.474Z,13.83
2022-09-28T22:35:40.727Z,13.87
2022-09-28T22:38:43.701Z,13.90
2022-09-28T22:41:46.082Z,13.94
2022-09-28T22:44:48.091Z,13.95
2022-09-28T22:47:50.445Z,13.97
2022-09-28T22:50:53.844Z,13.99
2022-09-28T22:53:56.718Z,14.00
2022-09-28T22:56:58.788Z,14.01
2022-09-28T23:00:01.162Z,14.02
2022-09-28T23:03:03.319Z,14.04
2022-09-28T23:06:06.353Z,14.02
2022-09-28T23:09:08.371Z,14.04
2022-09-28T23:12:10.601Z,14.00
2022-09-28T23:15:13.729Z,14.02
2022-09-28T23:18:16.209Z,14.02
2022-09-28T23:21:19.243Z,14.00
2022-09-28T23:24:21.520Z,14.01
2022-09-28T23:27:23.553Z,13.99
2022-09-28T23:30:26.229Z,14.02
2022-09-28T23:33:28.196Z,14.03
2022-09-28T23:36:30.753Z,14.04
2022-09-28T23:39:33.167Z,14.06
2022-09-28T23:42:35.630Z,14.08
2022-09-28T23:45:37.759Z,14.10
2022-09-28T23:48:40.087Z,14.08
2022-09-28T23:51:42.054Z,14.10
2022-09-28T23:54:44.642Z,14.10
2022-09-28T23:57:46.682Z,14.10
